x

Kenosha, Wi (knsw3) Weather Station

11:00pm - Wed 1st Apr 2015 All times are CDT. -5 hours from GMT.

  • Wind
    17mph, 22mph gusts
  • Air Temp 59°f
  • Sea Pressure 1008.8mb
  • Kenosha, Wi
  • Kenosha, Wi

More Historic Weather Station data

Upgrade to MSW Pro to gain access to the past 30 days of data for over 8000 Wavebouys and Weather Stations around the globe.

Join Pro

Comparision Forecast

View Surf forecast
   
Wed 04/01 11:00pm 17 22 mph 1008.8mb 59f
10:50pm 16 26 mph 1009.1mb 60f
10:40pm 15 21 mph 1009.1mb 56f
10:30pm 15 22 mph 1009.5mb 57f
10:20pm 18 22 mph 1009.5mb 54f
10:10pm 20 24 mph 1009.5mb 52f
10:00pm 20 24 mph 1009.5mb 57f
9:50pm 15 24 mph 1009.8mb -
9:40pm 16 24 mph 1009.8mb -
9:30pm 16 24 mph 1010.2mb -
9:20pm 18 24 mph 1010.2mb -
9:10pm 17 25 mph 1010.2mb -
9:00pm 16 23 mph 1010.5mb -
8:50pm 14 21 mph 1010.5mb -
8:40pm 16 20 mph 1010.5mb 48f
8:30pm 15 20 mph 1010.5mb 46f
8:20pm 16 21 mph 1010.5mb 47f
8:10pm 16 18 mph 1010.5mb 45f
8:00pm 17 20 mph 1010.5mb 45f
7:50pm 16 18 mph 1010.5mb 45f
7:40pm 15 20 mph 1010.5mb 46f
7:30pm 16 20 mph 1010.5mb 46f
7:20pm 17 20 mph 1010.5mb 46f
7:10pm 17 21 mph 1010.2mb 46f
7:00pm 17 21 mph 1010.2mb 47f
6:50pm 18 24 mph 1010.5mb 47f
6:40pm 21 26 mph 1010.5mb 48f
6:30pm 24 26 mph 1010.5mb 47f
6:20pm 23 25 mph 1010.5mb 47f
6:10pm 25 26 mph 1010.5mb 47f
6:00pm 22 23 mph 1010.5mb 46f
5:50pm 21 23 mph 1010.8mb 46f
5:40pm 18 23 mph 1010.8mb 47f
5:30pm 17 23 mph 1011.2mb 47f
5:20pm 17 22 mph 1011.2mb 46f
5:10pm 18 22 mph 1011.2mb 46f
5:00pm 16 20 mph 1011.5mb 46f
4:50pm 14 18 mph 1011.9mb 45f
4:40pm 15 16 mph 1012.2mb 45f
4:30pm 14 15 mph 1012.2mb 45f
4:20pm 14 15 mph 1012.5mb 45f
4:10pm 10 11 mph 1012.5mb 44f
4:00pm 8 10 mph 1012.9mb 44f
3:50pm 8 9 mph 1013.2mb 43f
3:40pm 7 8 mph 1013.2mb 43f
3:30pm 6 9 mph 1013.5mb 43f
3:20pm 8 9 mph 1013.9mb 42f
3:10pm 6 10 mph 1013.9mb 43f
3:00pm 7 9 mph 1013.9mb 42f
2:50pm 7 8 mph 1014.2mb 42f
2:40pm 7
mph
1014.6mb 43f
2:30pm 7
mph
1014.6mb 43f
2:20pm 7 8 mph 1014.6mb 42f
2:10pm 8 9 mph 1014.9mb 42f
2:00pm 8 9 mph 1014.9mb 42f
1:50pm 9 10 mph 1015.2mb 41f
1:40pm 9 13 mph 1015.2mb 41f
1:30pm 10 13 mph 1015.2mb 41f
1:20pm 10 13 mph 1015.6mb 40f
1:10pm 9 13 mph 1015.6mb 41f
1:00pm 9 11 mph 1015.9mb 40f
12:50pm 8 9 mph 1016.3mb 40f
12:40pm 8 9 mph 1016.3mb 40f
12:30pm 8 9 mph 1016.6mb 40f
12:20pm 8 9 mph 1016.9mb 40f
12:10pm 7 9 mph 1017.3mb 40f
12:00pm 7 8 mph 1017.3mb 41f
11:50am 5 6 mph 1017.6mb 41f
11:40am 5 6 mph 1017.9mb 40f
11:30am 3 5 mph 1017.9mb 39f
11:20am 5 6 mph 1017.9mb 41f
11:10am 5 7 mph 1017.9mb 39f
11:00am 6 7 mph 1017.9mb 40f
10:50am 6 7 mph 1017.9mb 40f
10:40am 5 7 mph 1018.3mb 41f
10:30am 5 6 mph 1017.9mb 41f
10:20am 3
mph
1018.3mb 39f
10:10am 2 3 mph 1018.3mb 39f
10:00am 3
mph
1018.3mb 39f
9:50am 2 3 mph 1018.3mb 39f
9:40am 3
mph
1018.3mb 39f
9:30am  -  mph 1018.3mb 39f
9:20am  -  2 mph 1018.3mb 39f
9:10am 2 3 mph 1017.9mb 39f
9:00am  -  mph 1017.9mb 39f
8:50am  -  mph 1017.9mb 40f
8:40am  -  1 mph 1017.9mb 39f
8:30am  -  1 mph 1017.9mb 39f
8:20am 1 2 mph 1017.9mb 39f
8:10am 2 3 mph 1017.6mb 39f
8:00am 2 3 mph 1017.6mb 38f
7:50am 2 3 mph 1017.6mb 38f
7:40am 3 5 mph 1017.6mb 38f
7:30am 3 5 mph 1017.3mb 38f
7:20am 3
mph
1017.3mb 39f
7:10am 1 3 mph 1016.9mb 38f
7:00am 2 5 mph 1016.9mb 38f
6:50am 3 5 mph 1016.6mb 38f
6:40am 5 6 mph 1016.6mb 38f
6:30am 5 6 mph 1016.6mb 38f
6:20am 6
mph
1016.3mb 38f
6:10am 5
mph
1016.3mb 38f
6:00am 3 7 mph 1016.3mb 38f
5:50am 7
mph
1016.3mb 39f
5:40am 6 7 mph 1015.9mb 38f
5:30am 7
mph
1015.9mb 39f
5:20am 7
mph
1015.9mb 39f
5:10am 7 8 mph 1015.9mb 39f
5:00am 7
mph
1015.6mb 39f
4:50am 7 8 mph 1015.6mb 39f
4:40am 8 10 mph 1015.6mb 39f
4:30am 7 8 mph 1015.2mb 39f
4:20am 7 9 mph 1015.6mb 39f
4:10am 8 9 mph 1015.2mb 40f
4:00am 9
mph
1015.2mb 40f
3:50am 7
mph
1015.6mb 41f
3:40am 7 8 mph 1015.2mb 41f
3:30am 7 8 mph 1015.2mb 42f
3:20am 5 7 mph 1015.2mb 42f
3:10am 2 5 mph 1015.2mb 42f
3:00am 1 2 mph 1015.2mb 42f
2:50am  -  2 mph 1015.2mb 42f
2:40am 1 3 mph 1015.2mb 42f
2:30am 2 5 mph 1015.2mb 42f
2:20am 2 6 mph 1015.2mb 43f
2:10am 6 10 mph 1015.2mb 43f
2:00am 9 13 mph 1014.9mb 44f
1:50am 11 14 mph 1014.9mb 45f
1:40am 7 17 mph 1014.9mb 44f
1:30am 11 20 mph 1014.6mb 45f
1:20am 10 14 mph 1014.2mb 45f
1:10am 10 11 mph 1014.2mb 44f
1:00am 9 10 mph 1014.2mb 43f
12:50am 8 9 mph 1014.2mb 43f
12:40am 6
mph
1014.2mb 42f
12:30am 3 5 mph 1014.2mb 42f
12:20am 3 5 mph 1014.2mb 41f
12:10am  -  1 mph 1014.2mb 39f
12:00am 2 3 mph 1013.9mb 41f
Tue 03/31 11:50pm 3 6 mph 1013.9mb 43f
11:40pm 1 2 mph 1013.9mb 42f
11:30pm  -  2 mph 1013.9mb 41f
11:20pm 2 5 mph 1013.9mb 42f
11:10pm 2 3 mph 1013.9mb 41f
11:00pm 1 3 mph 1013.9mb 41f
10:50pm 2 3 mph 1013.9mb 41f
10:40pm 2 3 mph 1013.9mb 40f
10:30pm 3 6 mph 1013.9mb 40f
10:20pm 5 6 mph 1013.9mb 40f
10:10pm 5 7 mph 1013.9mb 40f
10:00pm 5 10 mph 1013.9mb 40f
9:50pm 9 14 mph 1013.9mb 40f
9:40pm 13 15 mph 1013.9mb 40f
9:30pm 13 14 mph 1013.9mb 40f
9:20pm 10 13 mph 1013.5mb 40f
9:10pm 10 16 mph 1013.5mb 39f
9:00pm 13 15 mph 1013.5mb 39f
8:50pm 14 17 mph 1013.5mb 38f
8:40pm 15 16 mph 1013.5mb 38f
8:30pm 14 16 mph 1013.5mb 37f
8:20pm 13 15 mph 1013.5mb 37f
8:10pm 13 15 mph 1013.5mb 37f
8:00pm 13 16 mph 1013.5mb 37f
7:50pm 14 16 mph 1013.2mb 37f
7:40pm 14 16 mph 1013.5mb 37f
7:30pm 15 16 mph 1013.5mb 37f
7:20pm 14 17 mph 1013.2mb 37f
7:10pm 14 17 mph 1013.5mb 37f
7:00pm 14 17 mph 1013.2mb 37f
6:50pm 14 17 mph 1013.2mb 37f
6:40pm 15 18 mph 1013.5mb 38f
6:00pm 14 16 mph 1013.5mb 39f
5:50pm 15 17 mph 1013.5mb 39f
5:40pm 16 18 mph 1013.2mb 39f
5:30pm 17 20 mph 1013.5mb 39f
5:20pm 15 16 mph 1013.5mb 39f
5:10pm 14 15 mph 1013.2mb 39f
5:00pm 10 13 mph 1013.2mb 39f
4:50pm 10 13 mph 1013.5mb 39f
4:40pm 9 13 mph 1013.5mb 40f
4:30pm 10 13 mph 1013.5mb 39f
4:20pm 10 11 mph 1013.5mb 39f
4:10pm 10 11 mph 1013.5mb 39f
4:00pm 8 9 mph 1013.5mb 40f
3:50pm 7 9 mph 1013.9mb 40f
3:40pm 9 10 mph 1013.9mb 39f
3:30pm 7 10 mph 1013.9mb 40f
3:20pm 8 10 mph 1013.9mb 40f
3:10pm 8 10 mph 1014.2mb 40f
3:00pm 9 11 mph 1013.9mb 39f
2:50pm 10 13 mph 1013.9mb 39f
2:40pm 10 11 mph 1013.9mb 39f
2:30pm 8 10 mph 1014.2mb 40f
2:20pm 8 9 mph 1014.2mb 40f
2:10pm 7 8 mph 1014.2mb 40f
2:00pm 6 8 mph 1014.2mb 41f
1:50pm 8 9 mph 1014.2mb 40f
1:40pm 7 10 mph 1014.2mb 40f
1:30pm 9
mph
1014.2mb 40f
1:20pm 8 9 mph 1014.2mb 40f
1:10pm 9 10 mph 1014.2mb 40f
1:00pm 8 9 mph 1014.2mb 40f
12:50pm 10 13 mph 1014.2mb 38f
12:40pm 9 11 mph 1014.2mb 38f
12:30pm 10 13 mph 1014.2mb 38f
12:20pm 10 13 mph 1014.2mb 38f
12:10pm 10 14 mph 1014.2mb 38f
12:00pm 11 13 mph 1013.9mb 38f
11:50am 11 14 mph 1013.9mb 38f
11:40am 11 14 mph 1013.9mb 38f
11:30am 14 16 mph 1013.9mb 38f
11:20am 10 14 mph 1013.9mb 38f
11:10am 11 14 mph 1013.5mb 38f
11:00am 11 14 mph 1013.9mb 38f
10:50am 11 14 mph 1013.5mb 38f
10:40am 14 15 mph 1013.5mb 39f
10:30am 14 15 mph 1013.5mb 39f
10:20am 13 15 mph 1013.5mb 39f
10:10am 11 14 mph 1013.2mb 39f
10:00am 8 11 mph 1013.2mb 39f
9:50am 9 13 mph 1013.2mb 40f
9:40am 10 15 mph 1012.9mb 41f
9:30am 11 16 mph 1012.9mb 41f
9:20am 14 17 mph 1012.5mb 40f
9:10am 13 17 mph 1012.5mb 40f
9:00am 14 17 mph 1012.5mb 40f
8:50am 14 17 mph 1012.2mb 40f
8:40am 15 17 mph 1011.9mb 40f
8:30am 14 16 mph 1011.5mb 40f
8:20am 13 14 mph 1011.5mb 40f
8:10am 13 15 mph 1011.2mb 40f
8:00am 10 14 mph 1011.2mb 39f
7:50am 11 13 mph 1011.2mb 39f
7:40am 10 14 mph 1011.2mb 39f
7:30am 11 13 mph 1010.8mb 39f
7:20am 9 16 mph 1010.5mb 39f
7:10am 11 14 mph 1010.5mb 39f
7:00am 13 16 mph 1010.2mb 39f
6:50am 15 17 mph 1010.2mb 39f
6:40am 15 20 mph 1010.2mb 39f
6:30am 17 20 mph 1009.8mb 38f
6:20am 16 20 mph 1009.5mb 38f
6:10am 15 18 mph 1009.5mb 38f
6:00am 15 18 mph 1009.1mb 38f
5:50am 16 20 mph 1009.1mb 38f
5:40am 18 22 mph 1008.8mb 38f
5:30am 17 23 mph 1008.5mb 38f
5:20am 20 22 mph 1008.5mb 39f
5:10am 20 22 mph 1008.5mb 39f
5:00am 17 22 mph 1008.5mb 39f
4:50am 18 20 mph 1008.1mb 38f
4:40am 18 24 mph 1007.8mb 38f
4:30am 21 28 mph 1007.8mb 38f
4:20am 25 30 mph 1007.5mb 38f
4:10am 18 22 mph 1007.5mb 39f
4:00am 20 22 mph 1007.1mb 39f
3:50am 21 24 mph 1007.1mb 39f
3:40am 21 24 mph 1007.1mb 39f
3:30am 18 22 mph 1006.8mb 40f
3:20am 14 17 mph 1006.8mb 40f
3:10am 8 9 mph 1006.8mb 40f
3:00am 7 10 mph 1006.4mb 39f
2:50am 8 9 mph 1006.4mb 39f
2:40am 8
mph
1006.4mb 39f
2:30am 3 5 mph 1006.4mb 39f
2:20am 2 5 mph 1006.4mb 39f
2:10am 5 8 mph 1006.4mb 39f
2:00am 7 13 mph 1006.4mb 39f
1:50am 11 15 mph 1006.8mb 39f
1:40am 13 16 mph 1006.8mb 38f
1:30am 13 21 mph 1007.1mb 39f
1:20am 18 22 mph 1007.1mb 39f
1:10am 15 25 mph 1007.1mb 39f
1:00am 20 22 mph 1007.1mb 39f
12:50am 18 26 mph 1006.8mb 39f
12:40am 5 7 mph 1006.4mb 39f
12:30am 5 7 mph 1006.4mb 40f
12:20am 5 11 mph 1006.8mb 40f
12:10am 9 20 mph 1006.8mb 40f
12:00am 14 21 mph 1006.4mb 40f
Mon 03/30 11:50pm 16 24 mph 1006.8mb 40f
11:40pm 17 25 mph 1006.8mb 40f
11:30pm 20 26 mph 1007.1mb 40f
11:20pm 24 25 mph 1007.1mb 40f
11:10pm 22 26 mph 1007.8mb 40f
11:00pm 25 28 mph 1007.8mb 40f
10:50pm 18 23 mph 1008.5mb 40f
10:40pm 18 24 mph 1008.8mb 40f
10:30pm 17 22 mph 1009.1mb 40f
10:20pm 18 21 mph 1009.8mb 40f
10:10pm 14 17 mph 1010.2mb 40f
10:00pm 10 13 mph 1010.5mb 40f
9:50pm 10 13 mph 1010.2mb 40f
9:40pm 11 14 mph 1010.5mb 40f
9:30pm 11 14 mph 1010.5mb 41f
9:20pm 10 14 mph 1010.5mb 40f
9:10pm 11 16 mph 1010.5mb 40f
9:00pm 17 18 mph 1010.5mb 41f
8:50pm 14 17 mph 1010.8mb 41f
8:40pm 17
mph
1010.8mb 42f
8:30pm 14
mph
1010.8mb 42f
8:20pm 10 11 mph 1011.2mb 41f
8:10pm 8 10 mph 1011.9mb 41f
8:00pm 8 9 mph 1011.9mb 42f
7:50pm 6 10 mph 1011.9mb 43f
7:40pm 11
mph
1011.9mb 46f
7:30pm 7 9 mph 1012.2mb 50f
7:20pm 8 9 mph 1012.2mb 49f
7:10pm 8 9 mph 1012.2mb 49f
7:00pm 8
mph
1012.5mb 49f
6:50pm 8 9 mph 1012.9mb 49f
6:40pm 5 6 mph 1013.2mb 50f
6:30pm 2 3 mph 1013.2mb 50f
6:20pm  -  2 mph 1013.2mb 51f
6:10pm 2 8 mph 1013.5mb 51f
6:00pm 7 11 mph 1013.9mb 52f
5:50pm 6 9 mph 1013.9mb 52f
5:40pm 8 17 mph 1013.9mb 53f
5:30pm 13 17 mph 1013.5mb 53f
5:20pm 13 16 mph 1013.5mb 54f
5:10pm 7 16 mph 1013.5mb 54f
5:00pm 10 17 mph 1013.5mb 54f
4:50pm 9 14 mph 1013.9mb 54f
4:40pm 10 15 mph 1013.5mb 54f
4:30pm 14 16 mph 1013.5mb 54f
4:20pm 9 16 mph 1013.5mb 55f
4:10pm 11 20 mph 1013.9mb 54f
4:00pm 17 25 mph 1013.9mb 54f
3:50pm 18 31 mph 1014.2mb 56f
3:40pm 18 30 mph 1013.9mb 57f
3:30pm 16 29 mph 1014.2mb 57f
3:20pm 21 31 mph 1013.9mb 57f
3:10pm 25 32 mph 1013.5mb 57f
3:00pm 21 28 mph 1013.9mb 58f
2:50pm 17 20 mph 1013.9mb 58f
2:40pm 16 23 mph 1014.2mb 58f
2:30pm 14 22 mph 1014.2mb 58f
2:20pm 11 18 mph 1014.2mb 57f
2:10pm 16 22 mph 1014.6mb 56f
2:00pm 17 23 mph 1014.6mb 56f
1:50pm 14 23 mph 1014.6mb 57f
1:40pm 14 21 mph 1014.6mb 56f
1:30pm 15 29 mph 1014.9mb 56f
1:20pm 15 23 mph 1014.9mb 55f
1:10pm 8 21 mph 1014.9mb 56f
12:00pm 17 24 mph 1015.6mb 53f
11:50am 15 26 mph 1015.9mb 53f
11:40am 11 21 mph 1015.9mb 53f
11:30am 16 20 mph 1015.9mb 52f
11:20am 14 21 mph 1015.9mb 51f
11:10am 13 23 mph 1016.3mb 51f
11:00am 13 20 mph 1016.3mb 51f
10:50am 11 18 mph 1016.6mb 50f
10:40am 14 20 mph 1016.6mb 49f
10:30am 14 20 mph 1016.9mb 48f
10:20am 15 18 mph 1016.9mb 48f
10:10am 14 21 mph 1016.9mb 47f
10:00am 14 22 mph 1016.9mb 47f
9:50am 16 21 mph 1016.9mb 46f
9:40am 16 20 mph 1016.9mb 46f
9:30am 15 17 mph 1016.6mb 46f
9:20am 10 17 mph 1016.6mb 45f
9:10am 13 16 mph 1016.6mb 45f
9:00am 13 18 mph 1016.6mb 44f
8:50am 13 18 mph 1016.6mb 43f
8:40am 13 16 mph 1016.6mb 42f
8:30am 11 16 mph 1016.6mb 41f
8:20am 13 16 mph 1016.3mb 40f
8:10am 13 16 mph 1016.3mb 40f
8:00am 10 14 mph 1016.3mb 39f
7:50am 11 13 mph 1016.3mb 39f
7:40am 13 16 mph 1015.9mb 38f
7:30am 13 15 mph 1015.9mb 37f
7:20am 11 15 mph 1015.9mb 37f
7:10am 11 15 mph 1015.6mb 37f
7:00am 11 14 mph 1015.6mb 37f
6:50am 11 15 mph 1015.6mb 37f
6:40am 11 14 mph 1015.6mb 37f
6:30am 10 14 mph 1015.6mb 37f
6:20am 10 14 mph 1015.2mb 37f
6:10am 11 15 mph 1015.2mb 37f
6:00am 11 15 mph 1015.2mb 37f
5:50am 11 16 mph 1014.9mb 37f
5:40am 11 15 mph 1014.9mb 37f
5:30am 11 14 mph 1014.6mb 38f
5:20am 9 15 mph 1014.6mb 38f
5:10am 10 15 mph 1014.6mb 38f
5:00am 10 14 mph 1014.6mb 38f
4:50am 11 15 mph 1014.2mb 38f
4:40am 11 15 mph 1014.2mb 38f
4:30am 10 14 mph 1014.2mb 38f
4:20am 11 14 mph 1014.2mb 38f
4:10am 11 14 mph 1013.9mb 38f
4:00am 10 14 mph 1014.2mb 39f
3:50am 10 13 mph 1014.2mb 39f
3:40am 11 15 mph 1013.9mb 39f
3:30am 10 13 mph 1013.9mb 39f
3:20am 10 13 mph 1013.9mb 39f
3:10am 10 14 mph 1013.9mb 39f
3:00am 10 15 mph 1013.9mb 39f
2:50am 10 14 mph 1014.2mb 40f
2:40am 10 15 mph 1013.9mb 40f
2:30am 13 16 mph 1013.9mb 40f
2:20am 11 15 mph 1013.9mb 40f
2:10am 10 14 mph 1013.9mb 40f
2:00am 9 13 mph 1013.5mb 40f
1:50am 10 13 mph 1013.5mb 39f
1:40am 9 13 mph 1013.5mb 39f
1:30am 9 11 mph 1013.5mb 39f
1:20am 9 10 mph 1013.5mb 39f
1:10am 8 10 mph 1013.2mb 40f
1:00am 9 11 mph 1013.2mb 40f
12:50am 9 13 mph 1013.2mb 40f
12:40am 8 10 mph 1013.2mb 40f
12:30am 9 10 mph 1013.2mb 40f
12:20am 8 11 mph 1012.9mb 40f
12:10am 8 13 mph 1012.9mb 41f
12:00am 10 13 mph 1012.9mb 41f
Sun 03/29 11:50pm 9 13 mph 1012.9mb 40f
11:40pm 9 13 mph 1012.9mb 41f
11:30pm 9 13 mph 1012.5mb 41f
11:20pm 9 10 mph 1012.5mb 41f
11:10pm 8 13 mph 1012.5mb 41f
11:00pm 9 14 mph 1012.5mb 42f
10:50pm 9 16 mph 1012.5mb 42f
10:40pm 11 17 mph 1012.5mb 43f
10:30pm 11 21 mph 1012.5mb 43f
10:20pm 14 18 mph 1012.2mb 43f
10:10pm 13 16 mph 1011.9mb 43f
10:00pm 13 22 mph 1011.9mb 44f
9:50pm 14 21 mph 1011.5mb 44f
9:40pm 11 18 mph 1011.2mb 44f
9:30pm 15 20 mph 1010.8mb 44f
9:20pm 14 22 mph 1010.5mb 44f
9:10pm 15 23 mph 1010.5mb 45f
9:00pm 10 21 mph 1010.5mb 45f
8:50pm 16 23 mph 1010.2mb 45f
8:40pm 14 20 mph 1010.2mb 45f
8:30pm 15 20 mph 1009.5mb 45f
8:20pm 15 23 mph 1009.1mb 45f
8:10pm 21 34 mph 1008.8mb 46f
8:00pm 22 32 mph 1008.5mb 46f
7:50pm 23 32 mph 1008.5mb 46f
7:40pm 21 38 mph 1008.1mb 47f
7:30pm 23 37 mph 1008.1mb 47f
7:20pm 23 36 mph 1007.5mb 47f
7:10pm 25 31 mph 1007.5mb 46f
7:00pm 23 36 mph 1007.5mb 46f
6:50pm 23 31 mph 1007.1mb 46f
6:40pm 22 30 mph 1007.1mb 46f
6:30pm 20 30 mph 1006.8mb 45f
6:20pm 18 32 mph 1006.4mb 45f
6:10pm 18 29 mph 1006.4mb 45f
6:00pm 16 26 mph 1006.1mb 45f
5:50pm 17 26 mph 1005.8mb 44f
5:40pm 18 28 mph 1005.8mb 44f
5:30pm 24 32 mph 1005.4mb 44f
5:20pm 20 30 mph 1005.8mb 43f
5:10pm 24 36 mph 1005.8mb 43f
5:00pm 24 33 mph 1006.1mb 43f
4:50pm 21 32 mph 1006.1mb 42f
4:40pm 23 32 mph 1006.4mb 42f
4:30pm 22 32 mph 1006.8mb 41f
4:20pm 22 32 mph 1007.1mb 41f
4:10pm 18 33 mph 1007.1mb 41f
4:00pm 20 32 mph 1007.5mb 41f
3:50pm 17 37 mph 1007.8mb 40f
3:40pm 23 36 mph 1007.8mb 40f
3:30pm 21 31 mph 1008.1mb 39f
3:20pm 22 37 mph 1008.5mb 39f
3:10pm 20 36 mph 1008.5mb 39f
3:00pm 23 34 mph 1008.5mb 38f
2:50pm 21 40 mph 1008.8mb 38f
2:40pm 24 32 mph 1008.5mb 37f
2:30pm 22 32 mph 1009.1mb 37f
2:20pm 26 37 mph 1009.1mb 36f
2:10pm 20 33 mph 1009.1mb 35f
2:00pm 21 31 mph 1009.8mb 35f
1:50pm 18 39 mph 1009.8mb 35f
1:40pm 23 37 mph 1010.2mb 35f
1:30pm 26 33 mph 1010.5mb 35f
1:20pm 18 37 mph 1010.5mb 35f
1:10pm 18 38 mph 1010.5mb 36f
1:00pm 26 38 mph 1010.2mb 36f
12:50pm 23 33 mph 1010.8mb 36f
12:40pm 23 34 mph 1011.2mb 36f
12:30pm 22 39 mph 1010.8mb 36f
12:20pm 21 32 mph 1010.5mb 36f
12:10pm 25 39 mph 1011.2mb 36f
12:00pm 26 39 mph 1011.2mb 36f
11:50am 24 32 mph 1012.2mb 37f
11:40am 17 28 mph 1012.2mb 37f
11:30am 18 25 mph 1012.5mb 37f
11:20am 21 28 mph 1012.5mb 37f
11:10am 18 30 mph 1013.2mb 37f
11:00am 17 26 mph 1013.2mb 38f
10:50am 16 28 mph 1013.5mb 38f
10:40am 18 31 mph 1013.5mb 38f
10:30am 22 33 mph 1013.2mb 38f
10:20am 23 34 mph 1013.9mb 38f
10:10am 20 34 mph 1014.6mb 38f
10:00am 22 31 mph 1014.9mb 37f
9:50am 21 29 mph 1015.2mb 37f
9:40am 16 30 mph 1015.9mb 37f
9:30am 25 31 mph 1016.6mb 36f
9:20am 17 32 mph 1016.6mb 36f
9:10am 18 28 mph 1016.9mb 36f
9:00am 18 28 mph 1017.3mb 36f
8:50am 20 26 mph 1016.6mb 35f
8:40am 20 26 mph 1017.6mb 35f
8:30am 15 30 mph 1017.3mb 35f
8:20am 15 24 mph 1017.6mb 34f
8:10am 15 28 mph 1018.3mb 34f
8:00am 14 23 mph 1018.6mb 33f
7:50am 17 25 mph 1018.6mb 33f
7:40am 15 21 mph 1019.3mb 33f
7:30am 13 23 mph 1019.3mb 33f
7:20am 14 22 mph 1019.3mb 32f
7:10am 14 20 mph 1019.6mb 32f
7:00am 14 20 mph 1019.6mb 32f
6:50am 15 22 mph 1020mb 31f
6:40am 15 21 mph 1019.3mb 31f
6:30am 16 23 mph 1019.3mb 31f
6:20am 15 21 mph 1019.3mb 31f
6:10am 15 22 mph 1019mb 31f
6:00am 16 21 mph 1019mb 31f
5:50am 13 23 mph 1019.3mb 31f
5:40am 16 20 mph 1019.6mb 31f
5:30am 15 20 mph 1019.6mb 31f
5:20am 16 22 mph 1020mb 31f
5:10am 14 20 mph 1020.3mb 31f